Time,TemperatureF,DewpointF,PressureIn,WindDirection,WindDirectionDegrees,WindSpeedMPH,WindSpeedGustMPH,Humidity,HourlyPrecipIn,Conditions,Clouds,dailyrainin,SoftwareType,DateUTC
2013-02-12 00:00:00,44.2,13.9,31.87,SE,128,0.0,0.0,29,0.00,NA,NA,-99.99,wxupload 3.4,2013-02-12 05:00:00,
2013-02-12 00:04:00,43.7,13.5,31.87,SSW,192,0.0,0.0,29,0.00,NA,NA,-99.99,wxupload 3.4,2013-02-12 05:04:00,
2013-02-12 00:08:00,43.3,13.1,31.87,ESE,115,0.0,0.0,29,0.00,NA,NA,-99.99,wxupload 3.4,2013-02-12 05:08:00,
2013-02-12 00:14:00,43.3,13.1,31.87,ESE,116,0.0,0.0,29,0.00,NA,NA,-99.99,wxupload 3.4,2013-02-12 05:14:00,
2013-02-12 00:16:00,43.3,13.1,31.87,ESE,116,0.0,0.0,29,0.00,NA,NA,-99.99,wxupload 3.4,2013-02-12 05:16:00,
2013-02-12 00:22:00,43.3,13.1,31.90,ESE,116,0.0,0.0,29,0.00,NA,NA,-99.99,wxupload 3.4,2013-02-12 05:22:00,
2013-02-12 00:28:00,43.3,13.9,31.90,ESE,118,0.0,0.0,30,0.00,NA,NA,-99.99,wxupload 3.4,2013-02-12 05:28:00,
2013-02-12 00:34:00,43.7,14.2,31.90,East,96,0.0,0.0,30,0.00,NA,NA,-99.99,wxupload 3.4,2013-02-12 05:34:00,
2013-02-12 00:40:00,44.1,14.6,31.90,SE,127,0.0,0.0,30,0.00,NA,NA,-99.99,wxupload 3.4,2013-02-12 05:40:00,
2013-02-12 00:46:00,44.6,13.5,31.90,North,357,3.0,6.0,28,0.00,NA,NA,-99.99,wxupload 3.4,2013-02-12 05:46:00,
2013-02-12 00:52:00,45.3,14.1,31.90,NW,325,0.0,0.0,28,0.00,NA,NA,-99.99,wxupload 3.4,2013-02-12 05:52:00,
2013-02-12 00:58:00,44.8,13.6,31.90,NE,49,4.0,0.0,28,0.00,NA,NA,-99.99,wxupload 3.4,2013-02-12 05:58:00,
2013-02-12 01:04:00,44.8,13.6,31.90,West,265,2.0,4.0,28,0.00,NA,NA,-99.99,wxupload 3.4,2013-02-12 06:04:00,
2013-02-12 01:10:00,44.6,13.5,31.90,NW,313,0.0,0.0,28,0.00,NA,NA,-99.99,wxupload 3.4,2013-02-12 06:10:00,
2013-02-12 01:16:00,44.8,13.6,31.90,SW,216,4.0,7.0,28,0.00,NA,NA,-99.99,wxupload 3.4,2013-02-12 06:16:00,
2013-02-12 01:22:00,45.1,13.9,31.87,WSW,251,0.0,0.0,28,0.00,NA,NA,-99.99,wxupload 3.4,2013-02-12 06:22:00,
2013-02-12 01:28:00,45.1,13.9,31.87,SSW,199,0.0,0.0,28,0.00,NA,NA,-99.99,wxupload 3.4,2013-02-12 06:28:00,
2013-02-12 01:34:00,44.8,13.6,31.87,NNE,22,0.0,0.0,28,0.00,NA,NA,-99.99,wxupload 3.4,2013-02-12 06:34:00,
2013-02-12 01:40:00,44.8,13.6,31.87,North,0,3.0,5.0,28,0.00,NA,NA,-99.99,wxupload 3.4,2013-02-12 06:40:00,
2013-02-12 01:46:00,44.8,13.6,31.87,West,268,2.0,5.0,28,0.00,NA,NA,-99.99,wxupload 3.4,2013-02-12 06:46:00,
2013-02-12 01:52:00,44.8,13.6,31.87,WNW,303,2.0,3.0,28,0.00,NA,NA,-99.99,wxupload 3.4,2013-02-12 06:52:00,
2013-02-12 01:58:00,45.0,13.8,31.87,NW,311,0.0,4.0,28,0.00,NA,NA,-99.99,wxupload 3.4,2013-02-12 06:58:00,
2013-02-12 02:04:00,44.8,13.6,31.90,NW,306,0.0,0.0,28,0.00,NA,NA,-99.99,wxupload 3.4,2013-02-12 07:04:00,
2013-02-12 02:10:00,44.8,13.6,31.90,South,181,0.0,0.0,28,0.00,NA,NA,-99.99,wxupload 3.4,2013-02-12 07:10:00,
2013-02-12 02:16:00,44.8,13.6,31.90,SSW,204,0.0,0.0,28,0.00,NA,NA,-99.99,wxupload 3.4,2013-02-12 07:16:00,
2013-02-12 02:22:00,44.8,13.6,31.90,North,353,0.0,0.0,28,0.00,NA,NA,-99.99,wxupload 3.4,2013-02-12 07:22:00,
2013-02-12 02:28:00,45.1,13.9,31.90,North,353,0.0,0.0,28,0.00,NA,NA,-99.99,wxupload 3.4,2013-02-12 07:28:00,
2013-02-12 02:34:00,44.8,13.6,31.90,North,357,0.0,4.0,28,0.00,NA,NA,-99.99,wxupload 3.4,2013-02-12 07:34:00,
2013-02-12 02:40:00,44.8,13.6,31.90,SE,127,0.0,3.0,28,0.00,NA,NA,-99.99,wxupload 3.4,2013-02-12 07:40:00,
2013-02-12 02:46:00,44.2,13.1,31.90,SW,222,3.0,4.0,28,0.00,NA,NA,-99.99,wxupload 3.4,2013-02-12 07:46:00,
2013-02-12 02:52:00,44.1,13.0,31.90,NW,309,0.0,4.0,28,0.00,NA,NA,-99.99,wxupload 3.4,2013-02-12 07:52:00,
2013-02-12 02:58:00,44.2,13.1,31.90,SSW,196,0.0,4.0,28,0.00,NA,NA,-99.99,wxupload 3.4,2013-02-12 07:58:00,
2013-02-12 03:04:00,44.2,13.1,31.90,WNW,299,0.0,3.0,28,0.00,NA,NA,-99.99,wxupload 3.4,2013-02-12 08:04:00,
2013-02-12 03:10:00,43.9,13.6,31.90,SSW,203,2.0,0.0,29,0.00,NA,NA,-99.99,wxupload 3.4,2013-02-12 08:10:00,
2013-02-12 03:16:00,43.5,12.5,31.90,West,272,0.0,3.0,28,0.00,NA,NA,-99.99,wxupload 3.4,2013-02-12 08:16:00,
2013-02-12 03:22:00,43.3,12.3,31.90,WSW,253,3.0,5.0,28,0.00,NA,NA,-99.99,wxupload 3.4,2013-02-12 08:22:00,
2013-02-12 03:28:00,42.8,11.9,31.90,North,4,0.0,3.0,28,0.00,NA,NA,-99.99,wxupload 3.4,2013-02-12 08:28:00,
2013-02-12 03:34:00,42.3,12.2,31.87,WNW,290,0.0,2.0,29,0.00,NA,NA,-99.99,wxupload 3.4,2013-02-12 08:34:00,
2013-02-12 03:40:00,42.1,12.0,31.87,NW,315,0.0,3.0,29,0.00,NA,NA,-99.99,wxupload 3.4,2013-02-12 08:40:00,
2013-02-12 03:46:00,42.4,12.3,31.87,WNW,296,2.0,5.0,29,0.00,NA,NA,-99.99,wxupload 3.4,2013-02-12 08:46:00,
2013-02-12 03:52:00,42.1,12.0,31.87,NE,48,0.0,0.0,29,0.00,NA,NA,-99.99,wxupload 3.4,2013-02-12 08:52:00,
2013-02-12 03:58:00,41.9,11.1,31.87,NW,307,4.0,6.0,28,0.00,NA,NA,-99.99,wxupload 3.4,2013-02-12 08:58:00,
2013-02-12 04:04:00,41.5,10.8,31.90,WSW,239,0.0,3.0,28,0.00,NA,NA,-99.99,wxupload 3.4,2013-02-12 09:04:00,
2013-02-12 04:10:00,41.4,10.6,31.90,South,171,0.0,0.0,28,0.00,NA,NA,-99.99,wxupload 3.4,2013-02-12 09:10:00,
2013-02-12 04:16:00,40.8,10.9,31.90,ENE,71,3.0,4.0,29,0.00,NA,NA,-99.99,wxupload 3.4,2013-02-12 09:16:00,
2013-02-12 04:22:00,41.0,10.3,31.90,ENE,58,0.0,3.0,28,0.00,NA,NA,-99.99,wxupload 3.4,2013-02-12 09:22:00,
2013-02-12 04:28:00,41.5,10.8,31.90,NNW,339,4.0,4.0,28,0.00,NA,NA,-99.99,wxupload 3.4,2013-02-12 09:28:00,
2013-02-12 04:34:00,41.5,10.8,31.90,South,183,0.0,4.0,28,0.00,NA,NA,-99.99,wxupload 3.4,2013-02-12 09:34:00,
2013-02-12 04:40:00,41.0,10.3,31.90,SSE,166,0.0,4.0,28,0.00,NA,NA,-99.99,wxupload 3.4,2013-02-12 09:40:00,
2013-02-12 04:46:00,40.6,10.8,31.90,SSW,200,0.0,0.0,29,0.00,NA,NA,-99.99,wxupload 3.4,2013-02-12 09:46:00,
2013-02-12 04:52:00,40.5,10.6,31.90,SSW,197,5.0,10.0,29,0.00,NA,NA,-99.99,wxupload 3.4,2013-02-12 09:52:00,
2013-02-12 04:58:00,40.6,10.8,31.90,NE,45,0.0,3.0,29,0.00,NA,NA,-99.99,wxupload 3.4,2013-02-12 09:58:00,
2013-02-12 05:04:00,40.6,10.8,31.90,NNW,332,0.0,4.0,29,0.00,NA,NA,-99.99,wxupload 3.4,2013-02-12 10:04:00,
2013-02-12 05:10:00,40.6,10.8,31.90,NW,323,3.0,4.0,29,0.00,NA,NA,-99.99,wxupload 3.4,2013-02-12 10:10:00,
2013-02-12 05:16:00,41.0,10.3,31.90,NNE,32,2.0,8.0,28,0.00,NA,NA,-99.99,wxupload 3.4,2013-02-12 10:16:00,
2013-02-12 05:22:00,41.0,10.3,31.87,NNW,336,3.0,3.0,28,0.00,NA,NA,-99.99,wxupload 3.4,2013-02-12 10:22:00,
2013-02-12 05:28:00,40.6,10.8,31.87,NW,308,0.0,4.0,29,0.00,NA,NA,-99.99,wxupload 3.4,2013-02-12 10:28:00,
2013-02-12 05:34:00,40.6,10.8,31.90,NNE,14,4.0,7.0,29,0.00,NA,NA,-99.99,wxupload 3.4,2013-02-12 10:34:00,
2013-02-12 05:40:00,40.8,10.1,31.90,West,281,3.0,5.0,28,0.00,NA,NA,-99.99,wxupload 3.4,2013-02-12 10:40:00,
2013-02-12 05:46:00,40.8,10.1,31.90,North,0,4.0,5.0,28,0.00,NA,NA,-99.99,wxupload 3.4,2013-02-12 10:46:00,
2013-02-12 05:52:00,41.0,10.3,31.90,NNE,17,3.0,5.0,28,0.00,NA,NA,-99.99,wxupload 3.4,2013-02-12 10:52:00,
2013-02-12 05:58:00,40.8,10.1,31.90,WNW,303,0.0,3.0,28,0.00,NA,NA,-99.99,wxupload 3.4,2013-02-12 10:58:00,
2013-02-12 06:04:00,40.6,10.8,31.90,North,357,2.0,3.0,29,0.00,NA,NA,-99.99,wxupload 3.4,2013-02-12 11:04:00,
2013-02-12 06:10:00,40.3,10.4,31.90,SW,235,2.0,5.0,29,0.00,NA,NA,-99.99,wxupload 3.4,2013-02-12 11:10:00,
2013-02-12 06:16:00,40.3,10.4,31.90,SSW,209,0.0,4.0,29,0.00,NA,NA,-99.99,wxupload 3.4,2013-02-12 11:16:00,
2013-02-12 06:22:00,39.9,10.1,31.90,WNW,295,2.0,4.0,29,0.00,NA,NA,-99.99,wxupload 3.4,2013-02-12 11:22:00,
2013-02-12 06:28:00,39.7,10.0,31.90,North,11,0.0,3.0,29,0.00,NA,NA,-99.99,wxupload 3.4,2013-02-12 11:28:00,
2013-02-12 06:34:00,39.6,9.8,31.90,WNW,298,0.0,3.0,29,0.00,NA,NA,-99.99,wxupload 3.4,2013-02-12 11:34:00,
2013-02-12 06:40:00,39.4,9.6,31.90,WNW,303,0.0,3.0,29,0.00,NA,NA,-99.99,wxupload 3.4,2013-02-12 11:40:00,
2013-02-12 06:46:00,39.4,9.6,31.90,NW,313,2.0,4.0,29,0.00,NA,NA,-99.99,wxupload 3.4,2013-02-12 11:46:00,
2013-02-12 06:52:00,39.4,9.6,31.90,NW,313,0.0,3.0,29,0.00,NA,NA,-99.99,wxupload 3.4,2013-02-12 11:52:00,
2013-02-12 06:58:00,39.2,9.5,31.90,NW,306,2.0,4.0,29,0.00,NA,NA,-99.99,wxupload 3.4,2013-02-12 11:58:00,
2013-02-12 07:04:00,39.4,9.6,31.90,NNE,24,0.0,0.0,29,0.00,NA,NA,-99.99,wxupload 3.4,2013-02-12 12:04:00,
2013-02-12 07:10:00,39.4,9.6,31.90,NW,325,0.0,4.0,29,0.00,NA,NA,-99.99,wxupload 3.4,2013-02-12 12:10:00,
2013-02-12 07:16:00,39.6,9.8,31.90,NW,318,0.0,4.0,29,0.00,NA,NA,-99.99,wxupload 3.4,2013-02-12 12:16:00,
2013-02-12 07:22:00,39.6,9.8,31.92,WNW,282,0.0,0.0,29,0.00,NA,NA,-99.99,wxupload 3.4,2013-02-12 12:22:00,
2013-02-12 07:28:00,39.2,9.5,31.92,NE,41,0.0,10.0,29,0.00,NA,NA,-99.99,wxupload 3.4,2013-02-12 12:28:00,
2013-02-12 07:34:00,39.7,10.0,31.92,NE,45,2.0,4.0,29,0.00,NA,NA,-99.99,wxupload 3.4,2013-02-12 12:34:00,
2013-02-12 07:40:00,39.4,9.6,31.92,WSW,252,2.0,5.0,29,0.00,NA,NA,-99.99,wxupload 3.4,2013-02-12 12:40:00,
2013-02-12 07:46:00,39.9,10.1,31.92,NNW,341,0.0,4.0,29,0.00,NA,NA,-99.99,wxupload 3.4,2013-02-12 12:46:00,
2013-02-12 07:52:00,39.9,10.1,31.92,WSW,253,0.0,4.0,29,0.00,NA,NA,-99.99,wxupload 3.4,2013-02-12 12:52:00,
2013-02-12 07:58:00,40.3,10.4,31.92,West,265,3.0,4.0,29,0.00,NA,NA,-99.99,wxupload 3.4,2013-02-12 12:58:00,
2013-02-12 08:04:00,40.5,10.6,31.92,NE,35,0.0,6.0,29,0.00,NA,NA,-99.99,wxupload 3.4,2013-02-12 13:04:00,
2013-02-12 08:10:00,40.5,10.6,31.92,NW,320,0.0,0.0,29,0.00,NA,NA,-99.99,wxupload 3.4,2013-02-12 13:10:00,
2013-02-12 08:16:00,40.6,10.8,31.92,NNE,17,0.0,4.0,29,0.00,NA,NA,-99.99,wxupload 3.4,2013-02-12 13:16:00,
2013-02-12 08:22:00,40.8,10.9,31.95,NW,326,0.0,4.0,29,0.00,NA,NA,-99.99,wxupload 3.4,2013-02-12 13:22:00,
2013-02-12 08:28:00,41.0,10.3,31.95,NW,325,0.0,3.0,28,0.00,NA,NA,-99.99,wxupload 3.4,2013-02-12 13:28:00,
2013-02-12 08:34:00,41.0,10.3,31.95,SW,235,0.0,0.0,28,0.00,NA,NA,-99.99,wxupload 3.4,2013-02-12 13:34:00,
2013-02-12 08:40:00,41.5,10.8,31.95,NNE,33,2.0,5.0,28,0.00,NA,NA,-99.99,wxupload 3.4,2013-02-12 13:40:00,
2013-02-12 08:46:00,41.9,11.1,31.95,NW,308,0.0,7.0,28,0.00,NA,NA,-99.99,wxupload 3.4,2013-02-12 13:46:00,
2013-02-12 08:52:00,42.1,11.2,31.95,NW,310,0.0,3.0,28,0.00,NA,NA,-99.99,wxupload 3.4,2013-02-12 13:52:00,
2013-02-12 08:58:00,42.3,11.4,31.95,WNW,301,0.0,0.0,28,0.00,NA,NA,-99.99,wxupload 3.4,2013-02-12 13:58:00,
2013-02-12 09:04:00,42.6,11.7,31.95,NW,316,0.0,3.0,28,0.00,NA,NA,-99.99,wxupload 3.4,2013-02-12 14:04:00,
2013-02-12 09:10:00,43.0,12.0,31.95,WNW,293,0.0,3.0,28,0.00,NA,NA,-99.99,wxupload 3.4,2013-02-12 14:10:00,
2013-02-12 09:16:00,43.3,12.3,31.95,North,1,2.0,3.0,28,0.00,NA,NA,-99.99,wxupload 3.4,2013-02-12 14:16:00,
2013-02-12 09:22:00,43.7,12.7,31.95,NNW,342,0.0,4.0,28,0.00,NA,NA,-99.99,wxupload 3.4,2013-02-12 14:22:00,
2013-02-12 09:28:00,44.1,13.0,31.95,NNW,330,0.0,3.0,28,0.00,NA,NA,-99.99,wxupload 3.4,2013-02-12 14:28:00,
2013-02-12 09:34:00,44.8,12.8,31.95,NNW,346,3.0,5.0,27,0.00,NA,NA,-99.99,wxupload 3.4,2013-02-12 14:34:00,
2013-02-12 09:40:00,45.1,13.1,31.95,NNE,20,4.0,6.0,27,0.00,NA,NA,-99.99,wxupload 3.4,2013-02-12 14:40:00,
2013-02-12 09:46:00,45.5,11.6,31.95,WNW,292,4.0,0.0,25,0.00,NA,NA,-99.99,wxupload 3.4,2013-02-12 14:46:00,
2013-02-12 09:52:00,45.9,12.0,31.95,NW,310,4.0,4.0,25,0.00,NA,NA,-99.99,wxupload 3.4,2013-02-12 14:52:00,
2013-02-12 09:58:00,46.2,12.3,31.95,NE,49,2.0,5.0,25,0.00,NA,NA,-99.99,wxupload 3.4,2013-02-12 14:58:00,
2013-02-12 10:04:00,46.8,11.8,31.98,NNW,340,4.0,4.0,24,0.00,NA,NA,-99.99,wxupload 3.4,2013-02-12 15:04:00,
2013-02-12 10:10:00,47.1,12.1,31.98,NNW,331,4.0,6.0,24,0.00,NA,NA,-99.99,wxupload 3.4,2013-02-12 15:10:00,
2013-02-12 10:16:00,47.3,12.3,31.98,NW,310,2.0,5.0,24,0.00,NA,NA,-99.99,wxupload 3.4,2013-02-12 15:16:00,
2013-02-12 10:22:00,47.5,12.4,31.98,NE,39,4.0,5.0,24,0.00,NA,NA,-99.99,wxupload 3.4,2013-02-12 15:22:00,
2013-02-12 10:28:00,47.8,12.7,31.98,NNW,333,0.0,5.0,24,0.00,NA,NA,-99.99,wxupload 3.4,2013-02-12 15:28:00,
2013-02-12 10:34:00,48.2,13.1,31.98,NW,316,0.0,3.0,24,0.00,NA,NA,-99.99,wxupload 3.4,2013-02-12 15:34:00,
2013-02-12 10:40:00,48.7,13.5,31.98,NNE,22,2.0,6.0,24,0.00,NA,NA,-99.99,wxupload 3.4,2013-02-12 15:40:00,
2013-02-12 10:46:00,49.1,13.8,31.98,NW,326,0.0,5.0,24,0.00,NA,NA,-99.99,wxupload 3.4,2013-02-12 15:46:00,
2013-02-12 10:52:00,49.1,10.8,31.98,NE,38,6.0,9.0,21,0.00,NA,NA,-99.99,wxupload 3.4,2013-02-12 15:52:00,
2013-02-12 10:58:00,49.5,14.2,31.98,NW,312,3.0,6.0,24,0.00,NA,NA,-99.99,wxupload 3.4,2013-02-12 15:58:00,
2013-02-12 11:04:00,50.0,11.6,31.98,NNE,27,4.0,11.0,21,0.00,NA,NA,-99.99,wxupload 3.4,2013-02-12 16:04:00,
2013-02-12 11:10:00,50.4,14.9,31.98,ENE,58,0.0,0.0,24,0.00,NA,NA,-99.99,wxupload 3.4,2013-02-12 16:10:00,
2013-02-12 11:16:00,50.9,15.4,31.98,SE,128,0.0,3.0,24,0.00,NA,NA,-99.99,wxupload 3.4,2013-02-12 16:16:00,
2013-02-12 11:22:00,51.1,12.5,31.95,NNE,19,2.0,8.0,21,0.00,NA,NA,-99.99,wxupload 3.4,2013-02-12 16:22:00,
2013-02-12 11:28:00,51.1,12.5,31.95,WSW,238,0.0,0.0,21,0.00,NA,NA,-99.99,wxupload 3.4,2013-02-12 16:28:00,
2013-02-12 11:34:00,51.3,12.6,31.95,NNW,331,0.0,3.0,21,0.00,NA,NA,-99.99,wxupload 3.4,2013-02-12 16:34:00,
2013-02-12 11:40:00,52.0,13.2,31.95,North,4,6.0,9.0,21,0.00,NA,NA,-99.99,wxupload 3.4,2013-02-12 16:40:00,
2013-02-12 11:46:00,52.2,13.4,31.95,WNW,289,2.0,3.0,21,0.00,NA,NA,-99.99,wxupload 3.4,2013-02-12 16:46:00,
2013-02-12 11:52:00,52.5,13.7,31.98,North,353,3.0,6.0,21,0.00,NA,NA,-99.99,wxupload 3.4,2013-02-12 16:52:00,
2013-02-12 11:58:00,52.7,13.9,31.98,NNW,336,0.0,6.0,21,0.00,NA,NA,-99.99,wxupload 3.4,2013-02-12 16:58:00,
2013-02-12 12:04:00,52.7,13.9,31.95,WNW,293,2.0,5.0,21,0.00,NA,NA,-99.99,wxupload 3.4,2013-02-12 17:04:00,
2013-02-12 12:10:00,53.1,14.2,31.95,NW,315,5.0,6.0,21,0.00,NA,NA,-99.99,wxupload 3.4,2013-02-12 17:10:00,
2013-02-12 12:16:00,53.1,14.2,31.95,North,5,0.0,0.0,21,0.00,NA,NA,-99.99,wxupload 3.4,2013-02-12 17:16:00,
2013-02-12 12:22:00,53.6,13.5,31.95,WSW,250,4.0,6.0,20,0.00,NA,NA,-99.99,wxupload 3.4,2013-02-12 17:22:00,
2013-02-12 12:28:00,53.6,13.5,31.95,NE,34,3.0,3.0,20,0.00,NA,NA,-99.99,wxupload 3.4,2013-02-12 17:28:00,
2013-02-12 12:34:00,53.8,13.7,31.95,WNW,302,3.0,4.0,20,0.00,NA,NA,-99.99,wxupload 3.4,2013-02-12 17:34:00,
2013-02-12 12:40:00,54.0,13.8,31.95,South,172,3.0,3.0,20,0.00,NA,NA,-99.99,wxupload 3.4,2013-02-12 17:40:00,
2013-02-12 12:46:00,54.3,14.1,31.95,NNW,332,5.0,6.0,20,0.00,NA,NA,-99.99,wxupload 3.4,2013-02-12 17:46:00,
2013-02-12 12:52:00,54.5,14.3,31.95,WNW,282,0.0,3.0,20,0.00,NA,NA,-99.99,wxupload 3.4,2013-02-12 17:52:00,
2013-02-12 12:58:00,54.7,14.4,31.95,NNW,339,4.0,5.0,20,0.00,NA,NA,-99.99,wxupload 3.4,2013-02-12 17:58:00,
2013-02-12 13:04:00,54.7,14.4,31.95,WNW,284,3.0,5.0,20,0.00,NA,NA,-99.99,wxupload 3.4,2013-02-12 18:04:00,
2013-02-12 13:10:00,55.0,14.7,31.95,WNW,284,4.0,6.0,20,0.00,NA,NA,-99.99,wxupload 3.4,2013-02-12 18:10:00,
2013-02-12 13:16:00,55.8,15.3,31.95,WNW,283,0.0,4.0,20,0.00,NA,NA,-99.99,wxupload 3.4,2013-02-12 18:16:00,
2013-02-12 13:22:00,55.8,15.3,31.92,NW,310,4.0,5.0,20,0.00,NA,NA,-99.99,wxupload 3.4,2013-02-12 18:22:00,
2013-02-12 13:28:00,55.9,15.5,31.92,NW,325,4.0,5.0,20,0.00,NA,NA,-99.99,wxupload 3.4,2013-02-12 18:28:00,
2013-02-12 13:34:00,55.8,15.3,31.92,WNW,284,4.0,7.0,20,0.00,NA,NA,-99.99,wxupload 3.4,2013-02-12 18:34:00,
2013-02-12 13:40:00,56.1,15.7,31.92,ENE,70,0.0,3.0,20,0.00,NA,NA,-99.99,wxupload 3.4,2013-02-12 18:40:00,
2013-02-12 13:46:00,56.3,15.8,31.92,NW,320,2.0,4.0,20,0.00,NA,NA,-99.99,wxupload 3.4,2013-02-12 18:46:00,
2013-02-12 13:52:00,56.7,16.1,31.92,NW,326,0.0,3.0,20,0.00,NA,NA,-99.99,wxupload 3.4,2013-02-12 18:52:00,
2013-02-12 13:58:00,56.8,16.3,31.92,South,185,0.0,3.0,20,0.00,NA,NA,-99.99,wxupload 3.4,2013-02-12 18:58:00,
2013-02-12 14:05:00,56.8,16.3,31.92,NNW,330,3.0,5.0,20,0.00,NA,NA,-99.99,wxupload 3.4,2013-02-12 19:05:00,
2013-02-12 14:11:00,56.7,16.1,31.92,NW,313,0.0,4.0,20,0.00,NA,NA,-99.99,wxupload 3.4,2013-02-12 19:11:00,
2013-02-12 14:16:00,55.9,15.5,31.92,NW,318,2.0,8.0,20,0.00,NA,NA,-99.99,wxupload 3.4,2013-02-12 19:16:00,
2013-02-12 14:22:00,55.4,15.0,31.90,NNE,32,4.0,8.0,20,0.00,NA,NA,-99.99,wxupload 3.4,2013-02-12 19:22:00,
2013-02-12 14:28:00,55.2,14.9,31.90,NW,321,0.0,0.0,20,0.00,NA,NA,-99.99,wxupload 3.4,2013-02-12 19:28:00,
2013-02-12 14:34:00,55.0,14.7,31.87,NNW,335,0.0,3.0,20,0.00,NA,NA,-99.99,wxupload 3.4,2013-02-12 19:34:00,
2013-02-12 14:41:00,54.9,14.6,31.87,NNW,342,0.0,4.0,20,0.00,NA,NA,-99.99,wxupload 3.4,2013-02-12 19:41:00,
2013-02-12 14:47:00,54.7,14.4,31.87,NW,325,3.0,5.0,20,0.00,NA,NA,-99.99,wxupload 3.4,2013-02-12 19:47:00,
2013-02-12 14:53:00,54.5,14.3,31.87,WNW,285,0.0,3.0,20,0.00,NA,NA,-99.99,wxupload 3.4,2013-02-12 19:53:00,
2013-02-12 14:58:00,54.1,14.0,31.87,WNW,291,0.0,0.0,20,0.00,NA,NA,-99.99,wxupload 3.4,2013-02-12 19:58:00,
2013-02-12 15:04:00,53.8,13.7,31.90,North,3,0.0,0.0,20,0.00,NA,NA,-99.99,wxupload 3.4,2013-02-12 20:04:00,
2013-02-12 15:10:00,53.4,14.5,31.90,West,265,0.0,2.0,21,0.00,NA,NA,-99.99,wxupload 3.4,2013-02-12 20:10:00,
2013-02-12 15:16:00,53.2,14.3,31.90,WNW,293,0.0,0.0,21,0.00,NA,NA,-99.99,wxupload 3.4,2013-02-12 20:16:00,
2013-02-12 15:23:00,53.1,14.2,31.92,NNW,336,3.0,6.0,21,0.00,NA,NA,-99.99,wxupload 3.4,2013-02-12 20:23:00,
2013-02-12 15:29:00,52.9,14.0,31.92,West,265,0.0,8.0,21,0.00,NA,NA,-99.99,wxupload 3.4,2013-02-12 20:29:00,
2013-02-12 15:35:00,53.1,14.2,31.92,NNW,345,0.0,4.0,21,0.00,NA,NA,-99.99,wxupload 3.4,2013-02-12 20:35:00,
2013-02-12 15:41:00,53.1,14.2,31.92,WNW,303,0.0,5.0,21,0.00,NA,NA,-99.99,wxupload 3.4,2013-02-12 20:41:00,
2013-02-12 15:46:00,52.9,14.0,31.92,North,353,0.0,0.0,21,0.00,NA,NA,-99.99,wxupload 3.4,2013-02-12 20:46:00,
2013-02-12 15:52:00,52.9,14.0,31.92,NNW,335,0.0,2.0,21,0.00,NA,NA,-99.99,wxupload 3.4,2013-02-12 20:52:00,
2013-02-12 15:59:00,52.9,14.0,31.92,ESE,117,0.0,3.0,21,0.00,NA,NA,-99.99,wxupload 3.4,2013-02-12 20:59:00,
2013-02-12 16:05:00,52.7,13.9,31.92,ENE,67,0.0,0.0,21,0.00,NA,NA,-99.99,wxupload 3.4,2013-02-12 21:05:00,
2013-02-12 16:11:00,52.3,13.6,31.92,North,350,0.0,3.0,21,0.00,NA,NA,-99.99,wxupload 3.4,2013-02-12 21:11:00,
2013-02-12 16:17:00,52.5,13.7,31.92,North,353,0.0,0.0,21,0.00,NA,NA,-99.99,wxupload 3.4,2013-02-12 21:17:00,
2013-02-12 16:23:00,52.5,10.2,31.92,NW,326,0.0,0.0,18,0.00,NA,NA,-99.99,wxupload 3.4,2013-02-12 21:23:00,
2013-02-12 16:28:00,52.5,10.2,31.92,North,357,0.0,0.0,18,0.00,NA,NA,-99.99,wxupload 3.4,2013-02-12 21:28:00,
2013-02-12 16:34:00,52.7,10.3,31.92,North,357,0.0,0.0,18,0.00,NA,NA,-99.99,wxupload 3.4,2013-02-12 21:34:00,
2013-02-12 16:41:00,52.3,10.0,31.92,NE,35,0.0,3.0,18,0.00,NA,NA,-99.99,wxupload 3.4,2013-02-12 21:41:00,
2013-02-12 16:47:00,52.3,10.0,31.92,NNW,343,0.0,0.0,18,0.00,NA,NA,-99.99,wxupload 3.4,2013-02-12 21:47:00,
2013-02-12 16:53:00,51.4,10.5,31.92,NNW,327,0.0,0.0,19,0.00,NA,NA,-99.99,wxupload 3.4,2013-02-12 21:53:00,
2013-02-12 16:59:00,50.5,9.7,31.92,North,353,0.0,0.0,19,0.00,NA,NA,-99.99,wxupload 3.4,2013-02-12 21:59:00,
2013-02-12 17:05:00,50.0,9.3,31.95,NNW,343,0.0,0.0,19,0.00,NA,NA,-99.99,wxupload 3.4,2013-02-12 22:05:00,
2013-02-12 17:11:00,49.6,9.0,31.95,NW,317,0.0,0.0,19,0.00,NA,NA,-99.99,wxupload 3.4,2013-02-12 22:11:00,
2013-02-12 17:17:00,49.5,8.8,31.95,North,353,0.0,0.0,19,0.00,NA,NA,-99.99,wxupload 3.4,2013-02-12 22:17:00,
2013-02-12 17:23:00,48.9,8.4,31.95,NW,319,0.0,0.0,19,0.00,NA,NA,-99.99,wxupload 3.4,2013-02-12 22:23:00,
2013-02-12 17:29:00,49.3,8.7,31.95,NNE,28,0.0,0.0,19,0.00,NA,NA,-99.99,wxupload 3.4,2013-02-12 22:29:00,
2013-02-12 17:35:00,48.7,8.2,31.95,NNW,331,0.0,0.0,19,0.00,NA,NA,-99.99,wxupload 3.4,2013-02-12 22:35:00,
2013-02-12 17:41:00,48.4,7.9,31.95,NE,42,0.0,3.0,19,0.00,NA,NA,-99.99,wxupload 3.4,2013-02-12 22:41:00,
2013-02-12 17:47:00,48.0,7.6,31.95,NW,320,0.0,0.0,19,0.00,NA,NA,-99.99,wxupload 3.4,2013-02-12 22:47:00,
2013-02-12 17:53:00,47.3,7.0,31.95,NNW,342,0.0,0.0,19,0.00,NA,NA,-99.99,wxupload 3.4,2013-02-12 22:53:00,
2013-02-12 17:59:00,46.9,6.7,31.95,NNW,336,0.0,2.0,19,0.00,NA,NA,-99.99,wxupload 3.4,2013-02-12 22:59:00,
2013-02-12 18:05:00,46.6,9.7,31.95,NNW,342,3.0,3.0,22,0.00,NA,NA,-99.99,wxupload 3.4,2013-02-12 23:05:00,
2013-02-12 18:11:00,46.6,9.7,31.95,NNW,330,3.0,4.0,22,0.00,NA,NA,-99.99,wxupload 3.4,2013-02-12 23:11:00,
2013-02-12 18:17:00,47.1,10.1,31.95,NNW,335,0.0,3.0,22,0.00,NA,NA,-99.99,wxupload 3.4,2013-02-12 23:17:00,
2013-02-12 18:23:00,46.9,10.0,31.95,NW,317,0.0,3.0,22,0.00,NA,NA,-99.99,wxupload 3.4,2013-02-12 23:23:00,
2013-02-12 18:29:00,46.9,6.7,31.95,NW,310,2.0,4.0,19,0.00,NA,NA,-99.99,wxupload 3.4,2013-02-12 23:29:00,
2013-02-12 18:35:00,46.8,6.5,31.98,NW,309,2.0,5.0,19,0.00,NA,NA,-99.99,wxupload 3.4,2013-02-12 23:35:00,
2013-02-12 18:41:00,46.2,9.4,31.98,North,357,0.0,0.0,22,0.00,NA,NA,-99.99,wxupload 3.4,2013-02-12 23:41:00,
2013-02-12 18:47:00,45.9,9.1,31.95,North,350,0.0,0.0,22,0.00,NA,NA,-99.99,wxupload 3.4,2013-02-12 23:47:00,
2013-02-12 18:53:00,45.7,6.8,31.95,NNE,29,0.0,0.0,20,0.00,NA,NA,-99.99,wxupload 3.4,2013-02-12 23:53:00,
2013-02-12 18:59:00,45.7,6.8,31.95,NE,38,0.0,4.0,20,0.00,NA,NA,-99.99,wxupload 3.4,2013-02-12 23:59:00,
2013-02-12 19:05:00,45.3,8.6,31.95,NNE,29,0.0,0.0,22,0.00,NA,NA,-99.99,wxupload 3.4,2013-02-13 00:05:00,
2013-02-12 19:11:00,45.3,8.6,31.95,NNE,24,0.0,0.0,22,0.00,NA,NA,-99.99,wxupload 3.4,2013-02-13 00:11:00,
2013-02-12 19:17:00,45.1,6.3,31.95,NE,41,0.0,0.0,20,0.00,NA,NA,-99.99,wxupload 3.4,2013-02-13 00:17:00,
2013-02-12 19:23:00,44.8,6.0,31.95,NE,41,0.0,0.0,20,0.00,NA,NA,-99.99,wxupload 3.4,2013-02-13 00:23:00,
2013-02-12 19:29:00,44.4,5.7,31.95,NE,41,0.0,0.0,20,0.00,NA,NA,-99.99,wxupload 3.4,2013-02-13 00:29:00,
2013-02-12 19:35:00,44.4,8.8,31.95,NE,41,0.0,0.0,23,0.00,NA,NA,-99.99,wxupload 3.4,2013-02-13 00:35:00,
2013-02-12 19:41:00,44.2,8.7,31.95,North,357,0.0,0.0,23,0.00,NA,NA,-99.99,wxupload 3.4,2013-02-13 00:41:00,
2013-02-12 19:47:00,42.8,7.4,31.95,NNE,21,0.0,0.0,23,0.00,NA,NA,-99.99,wxupload 3.4,2013-02-13 00:47:00,
2013-02-12 19:53:00,42.1,6.8,31.95,NNE,21,0.0,0.0,23,0.00,NA,NA,-99.99,wxupload 3.4,2013-02-13 00:53:00,
2013-02-12 19:59:00,42.1,6.8,31.95,NNE,21,0.0,0.0,23,0.00,NA,NA,-99.99,wxupload 3.4,2013-02-13 00:59:00,
2013-02-12 20:05:00,41.5,6.3,31.92,NNE,21,0.0,0.0,23,0.00,NA,NA,-99.99,wxupload 3.4,2013-02-13 01:05:00,
2013-02-12 20:11:00,41.4,6.2,31.92,NNE,21,0.0,0.0,23,0.00,NA,NA,-99.99,wxupload 3.4,2013-02-13 01:11:00,
2013-02-12 20:17:00,41.2,6.0,31.92,WNW,300,0.0,0.0,23,0.00,NA,NA,-99.99,wxupload 3.4,2013-02-13 01:17:00,
2013-02-12 20:23:00,40.6,5.6,31.92,WNW,300,0.0,0.0,23,0.00,NA,NA,-99.99,wxupload 3.4,2013-02-13 01:23:00,
2013-02-12 20:29:00,40.1,5.1,31.92,WNW,300,0.0,0.0,23,0.00,NA,NA,-99.99,wxupload 3.4,2013-02-13 01:29:00,
2013-02-12 20:35:00,39.6,4.6,31.92,WNW,300,0.0,0.0,23,0.00,NA,NA,-99.99,wxupload 3.4,2013-02-13 01:35:00,
2013-02-12 20:41:00,39.0,5.1,31.92,WNW,300,0.0,0.0,24,0.00,NA,NA,-99.99,wxupload 3.4,2013-02-13 01:41:00,
2013-02-12 20:47:00,38.7,4.8,31.92,WNW,300,0.0,0.0,24,0.00,NA,NA,-99.99,wxupload 3.4,2013-02-13 01:47:00,
2013-02-12 20:54:00,38.5,4.6,31.92,WNW,300,0.0,0.0,24,0.00,NA,NA,-99.99,wxupload 3.4,2013-02-13 01:54:00,
2013-02-12 20:59:00,38.3,6.2,31.92,WNW,300,0.0,0.0,26,0.00,NA,NA,-99.99,wxupload 3.4,2013-02-13 01:59:00,
2013-02-12 21:05:00,38.3,6.2,31.92,NNE,29,0.0,0.0,26,0.00,NA,NA,-99.99,wxupload 3.4,2013-02-13 02:05:00,
2013-02-12 21:11:00,38.5,6.4,31.92,NE,52,0.0,0.0,26,0.00,NA,NA,-99.99,wxupload 3.4,2013-02-13 02:11:00,
2013-02-12 21:17:00,38.5,6.4,31.92,North,1,0.0,0.0,26,0.00,NA,NA,-99.99,wxupload 3.4,2013-02-13 02:17:00,
2013-02-12 21:23:00,38.7,6.6,31.92,WNW,294,0.0,0.0,26,0.00,NA,NA,-99.99,wxupload 3.4,2013-02-13 02:23:00,
2013-02-12 21:29:00,38.7,6.6,31.92,WNW,294,0.0,0.0,26,0.00,NA,NA,-99.99,wxupload 3.4,2013-02-13 02:29:00,
2013-02-12 21:36:00,38.7,9.0,31.95,WNW,294,0.0,0.0,29,0.00,NA,NA,-99.99,wxupload 3.4,2013-02-13 02:36:00,
2013-02-12 21:41:00,38.5,8.8,31.95,NW,309,0.0,0.0,29,0.00,NA,NA,-99.99,wxupload 3.4,2013-02-13 02:41:00,
2013-02-12 21:47:00,38.5,8.8,31.95,SSW,201,0.0,0.0,29,0.00,NA,NA,-99.99,wxupload 3.4,2013-02-13 02:47:00,
2013-02-12 21:53:00,38.1,8.5,31.95,SSW,201,0.0,0.0,29,0.00,NA,NA,-99.99,wxupload 3.4,2013-02-13 02:53:00,
2013-02-12 21:59:00,38.3,8.7,31.95,SSW,201,0.0,0.0,29,0.00,NA,NA,-99.99,wxupload 3.4,2013-02-13 02:59:00,
2013-02-12 22:05:00,37.9,8.4,31.92,SSW,201,0.0,0.0,29,0.00,NA,NA,-99.99,wxupload 3.4,2013-02-13 03:05:00,
2013-02-12 22:12:00,37.6,8.1,31.92,SSW,202,0.0,0.0,29,0.00,NA,NA,-99.99,wxupload 3.4,2013-02-13 03:12:00,
2013-02-12 22:18:00,37.4,7.9,31.92,SSW,202,0.0,0.0,29,0.00,NA,NA,-99.99,wxupload 3.4,2013-02-13 03:18:00,
2013-02-12 22:23:00,37.0,8.3,31.92,SSW,202,0.0,0.0,30,0.00,NA,NA,-99.99,wxupload 3.4,2013-02-13 03:23:00,
2013-02-12 22:29:00,36.9,8.2,31.92,SSW,202,0.0,0.0,30,0.00,NA,NA,-99.99,wxupload 3.4,2013-02-13 03:29:00,
2013-02-12 22:35:00,36.5,7.9,31.92,SSW,202,0.0,0.0,30,0.00,NA,NA,-99.99,wxupload 3.4,2013-02-13 03:35:00,
2013-02-12 22:41:00,36.3,7.7,31.92,SSW,202,0.0,0.0,30,0.00,NA,NA,-99.99,wxupload 3.4,2013-02-13 03:41:00,
2013-02-12 22:48:00,36.5,7.9,31.92,SSW,202,0.0,0.0,30,0.00,NA,NA,-99.99,wxupload 3.4,2013-02-13 03:48:00,
2013-02-12 22:54:00,36.3,7.7,31.92,SSW,202,0.0,0.0,30,0.00,NA,NA,-99.99,wxupload 3.4,2013-02-13 03:54:00,
2013-02-12 23:00:00,36.0,7.4,31.92,SSW,202,0.0,0.0,30,0.00,NA,NA,-99.99,wxupload 3.4,2013-02-13 04:00:00,
2013-02-12 23:05:00,35.4,7.6,31.92,SSW,202,0.0,0.0,31,0.00,NA,NA,-99.99,wxupload 3.4,2013-02-13 04:05:00,
2013-02-12 23:11:00,35.1,7.3,31.92,SSW,202,0.0,0.0,31,0.00,NA,NA,-99.99,wxupload 3.4,2013-02-13 04:11:00,
2013-02-12 23:17:00,34.9,7.1,31.92,SSW,202,0.0,0.0,31,0.00,NA,NA,-99.99,wxupload 3.4,2013-02-13 04:17:00,
2013-02-12 23:24:00,34.7,7.7,31.92,South,177,0.0,0.0,32,0.00,NA,NA,-99.99,wxupload 3.4,2013-02-13 04:24:00,
2013-02-12 23:30:00,34.3,7.4,31.92,South,177,0.0,0.0,32,0.00,NA,NA,-99.99,wxupload 3.4,2013-02-13 04:30:00,
2013-02-12 23:36:00,33.8,7.6,31.92,NW,307,0.0,0.0,33,0.00,NA,NA,-99.99,wxupload 3.4,2013-02-13 04:36:00,
2013-02-12 23:42:00,33.3,7.8,31.92,NW,307,0.0,0.0,34,0.00,NA,NA,-99.99,wxupload 3.4,2013-02-13 04:42:00,
2013-02-12 23:47:00,33.4,7.9,31.92,NW,307,0.0,0.0,34,0.00,NA,NA,-99.99,wxupload 3.4,2013-02-13 04:47:00,
2013-02-12 23:53:00,33.3,8.4,31.92,SSW,209,0.0,0.0,35,0.00,NA,NA,-99.99,wxupload 3.4,2013-02-13 04:53:00,